sensor_id;sensor_type;location;lat;lon;timestamp;pressure;altitude;pressure_sealevel;temperature;humidity
59951;BME280;45812;53.540;9.774;2022-10-16T00:01:11;100933.97;;;12.93;100.00
59951;BME280;45812;53.540;9.774;2022-10-16T00:03:38;100931.63;;;12.98;100.00
59951;BME280;45812;53.540;9.774;2022-10-16T00:06:04;100938.50;;;12.92;100.00
59951;BME280;45812;53.540;9.774;2022-10-16T00:08:30;100945.81;;;12.98;100.00
59951;BME280;45812;53.540;9.774;2022-10-16T00:11:01;100942.63;;;13.03;100.00
59951;BME280;45812;53.540;9.774;2022-10-16T00:13:27;100943.78;;;13.00;100.00
59951;BME280;45812;53.540;9.774;2022-10-16T00:15:55;100934.78;;;13.01;100.00
59951;BME280;45812;53.540;9.774;2022-10-16T00:18:21;100940.16;;;12.93;100.00
59951;BME280;45812;53.540;9.774;2022-10-16T00:20:46;100939.31;;;12.93;100.00
59951;BME280;45812;53.540;9.774;2022-10-16T00:23:11;100934.28;;;12.98;100.00
59951;BME280;45812;53.540;9.774;2022-10-16T00:25:36;100933.09;;;13.00;100.00
59951;BME280;45812;53.540;9.774;2022-10-16T00:28:02;100938.31;;;12.94;100.00
59951;BME280;45812;53.540;9.774;2022-10-16T00:30:27;100950.66;;;12.95;100.00
59951;BME280;45812;53.540;9.774;2022-10-16T00:32:53;100947.25;;;13.09;100.00
59951;BME280;45812;53.540;9.774;2022-10-16T00:35:19;100943.75;;;13.09;100.00
59951;BME280;45812;53.540;9.774;2022-10-16T00:37:44;100949.63;;;13.04;100.00
59951;BME280;45812;53.540;9.774;2022-10-16T00:40:10;100947.81;;;12.96;100.00
59951;BME280;45812;53.540;9.774;2022-10-16T00:42:35;100943.78;;;13.00;100.00
59951;BME280;45812;53.540;9.774;2022-10-16T00:45:00;100951.97;;;12.99;100.00
59951;BME280;45812;53.540;9.774;2022-10-16T00:47:29;100957.38;;;12.91;100.00
59951;BME280;45812;53.540;9.774;2022-10-16T00:52:34;100957.41;;;12.83;100.00
59951;BME280;45812;53.540;9.774;2022-10-16T00:55:00;100956.41;;;12.84;100.00
59951;BME280;45812;53.540;9.774;2022-10-16T00:57:26;100959.97;;;12.68;100.00
59951;BME280;45812;53.540;9.774;2022-10-16T00:59:53;100966.59;;;12.80;100.00
59951;BME280;45812;53.540;9.774;2022-10-16T01:02:18;100976.84;;;12.68;100.00
59951;BME280;45812;53.540;9.774;2022-10-16T01:04:53;100969.00;;;12.67;100.00
59951;BME280;45812;53.540;9.774;2022-10-16T01:12:45;100975.03;;;12.44;100.00
59951;BME280;45812;53.540;9.774;2022-10-16T01:18:06;100975.22;;;12.51;100.00
59951;BME280;45812;53.540;9.774;2022-10-16T01:20:54;100972.56;;;12.43;100.00
59951;BME280;45812;53.540;9.774;2022-10-16T01:26:14;100973.25;;;12.21;100.00
59951;BME280;45812;53.540;9.774;2022-10-16T01:28:51;100975.75;;;12.22;100.00
59951;BME280;45812;53.540;9.774;2022-10-16T01:31:22;100977.97;;;12.10;100.00
59951;BME280;45812;53.540;9.774;2022-10-16T01:34:20;100977.97;;;12.10;100.00
59951;BME280;45812;53.540;9.774;2022-10-16T01:36:54;100980.13;;;12.15;100.00
59951;BME280;45812;53.540;9.774;2022-10-16T01:39:29;100973.63;;;12.09;100.00
59951;BME280;45812;53.540;9.774;2022-10-16T01:42:02;100978.59;;;12.21;100.00
59951;BME280;45812;53.540;9.774;2022-10-16T01:44:29;100972.28;;;12.13;100.00
59951;BME280;45812;53.540;9.774;2022-10-16T01:46:56;100980.47;;;12.12;100.00
59951;BME280;45812;53.540;9.774;2022-10-16T01:49:25;100977.47;;;11.99;100.00
59951;BME280;45812;53.540;9.774;2022-10-16T01:51:55;100983.47;;;12.01;100.00
59951;BME280;45812;53.540;9.774;2022-10-16T01:54:23;100980.44;;;11.88;100.00
59951;BME280;45812;53.540;9.774;2022-10-16T01:56:50;100983.66;;;11.91;100.00
59951;BME280;45812;53.540;9.774;2022-10-16T01:59:19;100979.44;;;11.89;100.00
59951;BME280;45812;53.540;9.774;2022-10-16T02:01:47;100973.63;;;11.93;100.00
59951;BME280;45812;53.540;9.774;2022-10-16T02:04:17;100979.63;;;11.95;100.00
59951;BME280;45812;53.540;9.774;2022-10-16T02:06:43;100976.47;;;12.00;100.00
59951;BME280;45812;53.540;9.774;2022-10-16T02:09:09;100981.63;;;12.01;100.00
59951;BME280;45812;53.540;9.774;2022-10-16T02:11:35;100984.63;;;11.98;100.00
59951;BME280;45812;53.540;9.774;2022-10-16T02:14:07;100986.44;;;11.90;100.00
59951;BME280;45812;53.540;9.774;2022-10-16T02:16:39;100979.44;;;11.72;100.00
59951;BME280;45812;53.540;9.774;2022-10-16T02:19:05;100993.28;;;11.76;100.00
59951;BME280;45812;53.540;9.774;2022-10-16T02:21:44;100992.06;;;11.70;100.00
59951;BME280;45812;53.540;9.774;2022-10-16T02:24:20;100984.44;;;11.75;100.00
59951;BME280;45812;53.540;9.774;2022-10-16T02:27:06;100983.25;;;11.70;100.00
59951;BME280;45812;53.540;9.774;2022-10-16T02:29:39;100994.13;;;11.85;100.00
59951;BME280;45812;53.540;9.774;2022-10-16T02:32:07;100992.78;;;11.80;100.00
59951;BME280;45812;53.540;9.774;2022-10-16T02:34:36;100993.47;;;11.82;100.00
59951;BME280;45812;53.540;9.774;2022-10-16T02:37:04;100992.25;;;11.61;100.00
59951;BME280;45812;53.540;9.774;2022-10-16T02:39:30;100997.91;;;11.58;100.00
59951;BME280;45812;53.540;9.774;2022-10-16T02:41:56;100983.59;;;11.59;100.00
59951;BME280;45812;53.540;9.774;2022-10-16T02:44:21;100989.28;;;11.72;100.00
59951;BME280;45812;53.540;9.774;2022-10-16T02:46:47;100998.22;;;11.46;100.00
59951;BME280;45812;53.540;9.774;2022-10-16T02:49:12;100992.50;;;11.33;100.00
59951;BME280;45812;53.540;9.774;2022-10-16T02:51:37;100992.16;;;11.28;100.00
59951;BME280;45812;53.540;9.774;2022-10-16T02:54:03;100991.19;;;11.29;100.00
59951;BME280;45812;53.540;9.774;2022-10-16T02:56:28;100989.00;;;11.16;100.00
59951;BME280;45812;53.540;9.774;2022-10-16T02:58:55;100986.78;;;11.12;100.00
59951;BME280;45812;53.540;9.774;2022-10-16T03:01:20;100988.47;;;11.13;100.00
59951;BME280;45812;53.540;9.774;2022-10-16T03:03:45;100981.50;;;11.28;100.00
59951;BME280;45812;53.540;9.774;2022-10-16T03:06:10;100991.13;;;11.13;100.00
59951;BME280;45812;53.540;9.774;2022-10-16T03:08:36;100993.28;;;11.09;100.00
59951;BME280;45812;53.540;9.774;2022-10-16T03:11:01;100986.78;;;11.12;100.00
59951;BME280;45812;53.540;9.774;2022-10-16T03:13:26;100987.50;;;11.30;100.00
59951;BME280;45812;53.540;9.774;2022-10-16T03:15:52;100988.78;;;11.10;100.00
59951;BME280;45812;53.540;9.774;2022-10-16T03:18:17;100979.63;;;11.04;100.00
59951;BME280;45812;53.540;9.774;2022-10-16T03:20:43;100976.41;;;10.92;100.00
59951;BME280;45812;53.540;9.774;2022-10-16T03:23:08;100992.88;;;10.96;100.00
59951;BME280;45812;53.540;9.774;2022-10-16T03:25:34;100991.72;;;10.90;100.00
59951;BME280;45812;53.540;9.774;2022-10-16T03:27:59;100998.34;;;10.86;100.00
59951;BME280;45812;53.540;9.774;2022-10-16T03:30:25;100998.88;;;10.90;100.00
59951;BME280;45812;53.540;9.774;2022-10-16T03:32:50;100999.38;;;10.93;100.00
59951;BME280;45812;53.540;9.774;2022-10-16T03:35:22;100998.44;;;11.03;100.00
59951;BME280;45812;53.540;9.774;2022-10-16T03:37:47;100994.13;;;11.10;100.00
59951;BME280;45812;53.540;9.774;2022-10-16T03:40:13;101005.28;;;11.13;100.00
59951;BME280;45812;53.540;9.774;2022-10-16T03:42:38;100996.44;;;11.13;100.00
59951;BME280;45812;53.540;9.774;2022-10-16T03:45:04;101004.81;;;11.26;100.00
59951;BME280;45812;53.540;9.774;2022-10-16T03:47:30;101008.50;;;11.33;100.00
59951;BME280;45812;53.540;9.774;2022-10-16T03:49:55;100998.00;;;11.32;100.00
59951;BME280;45812;53.540;9.774;2022-10-16T03:52:21;100997.00;;;11.16;100.00
59951;BME280;45812;53.540;9.774;2022-10-16T03:54:46;100993.78;;;11.13;100.00
59951;BME280;45812;53.540;9.774;2022-10-16T03:57:12;101002.44;;;11.15;100.00
59951;BME280;45812;53.540;9.774;2022-10-16T03:59:37;100998.81;;;11.16;100.00
59951;BME280;45812;53.540;9.774;2022-10-16T04:02:02;101015.94;;;11.13;100.00
59951;BME280;45812;53.540;9.774;2022-10-16T04:04:28;101017.59;;;11.14;100.00
59951;BME280;45812;53.540;9.774;2022-10-16T04:06:53;101018.31;;;11.16;100.00
59951;BME280;45812;53.540;9.774;2022-10-16T04:09:18;101031.75;;;11.07;100.00
59951;BME280;45812;53.540;9.774;2022-10-16T04:11:44;101029.94;;;11.15;100.00
59951;BME280;45812;53.540;9.774;2022-10-16T04:14:09;101027.16;;;11.25;100.00
59951;BME280;45812;53.540;9.774;2022-10-16T04:16:34;101021.09;;;11.15;100.00
59951;BME280;45812;53.540;9.774;2022-10-16T04:18:59;101037.13;;;11.23;100.00
59951;BME280;45812;53.540;9.774;2022-10-16T04:21:26;101041.13;;;11.19;100.00
59951;BME280;45812;53.540;9.774;2022-10-16T04:23:51;101041.78;;;11.21;100.00
59951;BME280;45812;53.540;9.774;2022-10-16T04:26:16;101043.13;;;11.17;100.00
59951;BME280;45812;53.540;9.774;2022-10-16T04:28:42;101035.97;;;11.17;100.00
59951;BME280;45812;53.540;9.774;2022-10-16T04:31:07;101038.47;;;11.19;100.00
59951;BME280;45812;53.540;9.774;2022-10-16T04:33:33;101040.75;;;11.14;100.00
59951;BME280;45812;53.540;9.774;2022-10-16T04:36:00;101045.91;;;11.07;100.00
59951;BME280;45812;53.540;9.774;2022-10-16T04:38:25;101057.53;;;11.06;100.00
59951;BME280;45812;53.540;9.774;2022-10-16T04:40:51;101057.03;;;11.03;100.00
59951;BME280;45812;53.540;9.774;2022-10-16T04:43:17;101064.50;;;10.99;100.00
59951;BME280;45812;53.540;9.774;2022-10-16T04:45:42;101070.09;;;10.88;100.00
59951;BME280;45812;53.540;9.774;2022-10-16T04:48:07;101057.81;;;10.95;100.00
59951;BME280;45812;53.540;9.774;2022-10-16T04:50:32;101066.56;;;10.79;100.00
59951;BME280;45812;53.540;9.774;2022-10-16T04:52:58;101063.94;;;10.87;100.00
59951;BME280;45812;53.540;9.774;2022-10-16T04:55:23;101062.69;;;11.00;100.00
59951;BME280;45812;53.540;9.774;2022-10-16T04:57:48;101063.78;;;10.89;100.00
59951;BME280;45812;53.540;9.774;2022-10-16T05:00:14;101063.84;;;10.71;100.00
59951;BME280;45812;53.540;9.774;2022-10-16T05:02:40;101054.50;;;10.67;100.00
59951;BME280;45812;53.540;9.774;2022-10-16T05:05:05;101065.78;;;10.61;100.00
59951;BME280;45812;53.540;9.774;2022-10-16T05:07:31;101069.28;;;10.61;100.00
59951;BME280;45812;53.540;9.774;2022-10-16T05:09:56;101068.13;;;10.64;100.00
59951;BME280;45812;53.540;9.774;2022-10-16T05:12:21;101069.28;;;10.61;100.00
59951;BME280;45812;53.540;9.774;2022-10-16T05:14:46;101069.47;;;10.68;100.00
59951;BME280;45812;53.540;9.774;2022-10-16T05:17:12;101083.44;;;10.62;100.00
59951;BME280;45812;53.540;9.774;2022-10-16T05:19:37;101080.78;;;10.62;100.00
59951;BME280;45812;53.540;9.774;2022-10-16T05:22:02;101078.09;;;10.62;100.00
59951;BME280;45812;53.540;9.774;2022-10-16T05:24:28;101083.16;;;10.73;100.00
59951;BME280;45812;53.540;9.774;2022-10-16T05:26:53;101074.84;;;10.76;100.00
59951;BME280;45812;53.540;9.774;2022-10-16T05:29:19;101081.50;;;10.72;100.00
59951;BME280;45812;53.540;9.774;2022-10-16T05:31:44;101074.09;;;10.84;100.00
59951;BME280;45812;53.540;9.774;2022-10-16T05:34:10;101088.47;;;10.99;100.00
59951;BME280;45812;53.540;9.774;2022-10-16T05:36:35;101092.16;;;10.98;100.00
59951;BME280;45812;53.540;9.774;2022-10-16T05:39:00;101085.16;;;10.97;100.00
59951;BME280;45812;53.540;9.774;2022-10-16T05:41:26;101090.00;;;11.02;100.00
59951;BME280;45812;53.540;9.774;2022-10-16T05:43:52;101098.16;;;11.00;100.00
59951;BME280;45812;53.540;9.774;2022-10-16T05:46:17;101090.31;;;10.99;100.00
59951;BME280;45812;53.540;9.774;2022-10-16T05:48:43;101084.28;;;10.97;100.00
59951;BME280;45812;53.540;9.774;2022-10-16T05:51:10;101088.25;;;10.92;100.00
59951;BME280;45812;53.540;9.774;2022-10-16T05:53:37;101096.94;;;10.95;100.00
59951;BME280;45812;53.540;9.774;2022-10-16T05:56:04;101099.66;;;11.03;100.00
59951;BME280;45812;53.540;9.774;2022-10-16T05:58:33;101102.72;;;11.16;100.00
59951;BME280;45812;53.540;9.774;2022-10-16T06:01:06;101101.09;;;11.23;100.00
59951;BME280;45812;53.540;9.774;2022-10-16T06:03:32;101101.88;;;11.15;100.00
59951;BME280;45812;53.540;9.774;2022-10-16T06:05:58;101101.00;;;11.07;100.00
59951;BME280;45812;53.540;9.774;2022-10-16T06:08:23;101108.31;;;11.05;100.00
59951;BME280;45812;53.540;9.774;2022-10-16T06:10:59;101110.91;;;10.97;100.00
59951;BME280;45812;53.540;9.774;2022-10-16T06:13:24;101110.22;;;10.86;100.00
59951;BME280;45812;53.540;9.774;2022-10-16T06:15:50;101116.53;;;10.85;100.00
59951;BME280;45812;53.540;9.774;2022-10-16T06:18:15;101114.84;;;10.84;100.00
59951;BME280;45812;53.540;9.774;2022-10-16T06:20:40;101120.22;;;10.92;100.00
59951;BME280;45812;53.540;9.774;2022-10-16T06:23:05;101117.84;;;10.81;100.00
59951;BME280;45812;53.540;9.774;2022-10-16T06:25:31;101113.28;;;11.00;100.00
59951;BME280;45812;53.540;9.774;2022-10-16T06:27:57;101106.84;;;11.10;100.00
59951;BME280;45812;53.540;9.774;2022-10-16T06:30:22;101106.13;;;11.00;100.00
59951;BME280;45812;53.540;9.774;2022-10-16T06:32:47;101115.63;;;11.03;100.00
59951;BME280;45812;53.540;9.774;2022-10-16T06:35:12;101122.16;;;11.08;100.00
59951;BME280;45812;53.540;9.774;2022-10-16T06:37:38;101132.97;;;11.07;100.00
59951;BME280;45812;53.540;9.774;2022-10-16T06:40:03;101141.63;;;11.09;100.00
59951;BME280;45812;53.540;9.774;2022-10-16T06:42:30;101139.56;;;11.20;100.00
59951;BME280;45812;53.540;9.774;2022-10-16T06:44:55;101136.06;;;11.28;100.00
59951;BME280;45812;53.540;9.774;2022-10-16T06:47:20;101147.22;;;11.58;100.00
59951;BME280;45812;53.540;9.774;2022-10-16T06:49:46;101146.75;;;11.70;100.00
59951;BME280;45812;53.540;9.774;2022-10-16T06:52:11;101154.84;;;11.87;100.00
59951;BME280;45812;53.540;9.774;2022-10-16T06:54:36;101158.22;;;12.05;100.00
59951;BME280;45812;53.540;9.774;2022-10-16T06:57:02;101157.09;;;12.24;100.00
59951;BME280;45812;53.540;9.774;2022-10-16T06:59:27;101166.13;;;12.31;100.00
59951;BME280;45812;53.540;9.774;2022-10-16T07:01:52;101164.78;;;12.43;100.00
59951;BME280;45812;53.540;9.774;2022-10-16T07:04:18;101166.78;;;12.57;100.00
59951;BME280;45812;53.540;9.774;2022-10-16T07:06:43;101172.47;;;12.70;100.00
59951;BME280;45812;53.540;9.774;2022-10-16T07:09:12;101172.28;;;12.80;100.00
59951;BME280;45812;53.540;9.774;2022-10-16T07:11:39;101174.63;;;12.75;100.00
59951;BME280;45812;53.540;9.774;2022-10-16T07:14:05;101187.81;;;12.77;100.00
59951;BME280;45812;53.540;9.774;2022-10-16T07:16:37;101181.16;;;12.72;100.00
59951;BME280;45812;53.540;9.774;2022-10-16T07:19:02;101176.31;;;12.76;100.00
59951;BME280;45812;53.540;9.774;2022-10-16T07:21:30;101185.16;;;12.77;100.00
59951;BME280;45812;53.540;9.774;2022-10-16T07:23:58;101182.47;;;12.77;100.00
59951;BME280;45812;53.540;9.774;2022-10-16T07:26:24;101193.16;;;12.93;100.00
59951;BME280;45812;53.540;9.774;2022-10-16T07:28:50;101197.84;;;13.23;100.00
59951;BME280;45812;53.540;9.774;2022-10-16T07:31:17;101197.91;;;13.54;100.00
59951;BME280;45812;53.540;9.774;2022-10-16T07:33:44;101206.72;;;13.71;100.00
59951;BME280;45812;53.540;9.774;2022-10-16T07:36:10;101213.19;;;13.85;100.00
59951;BME280;45812;53.540;9.774;2022-10-16T07:38:36;101214.59;;;14.04;100.00
59951;BME280;45812;53.540;9.774;2022-10-16T07:41:06;101211.59;;;14.30;100.00
59951;BME280;45812;53.540;9.774;2022-10-16T07:43:32;101212.28;;;14.32;100.00
59951;BME280;45812;53.540;9.774;2022-10-16T07:45:58;101216.94;;;14.30;100.00
59951;BME280;45812;53.540;9.774;2022-10-16T07:48:25;101220.69;;;14.20;100.00
59951;BME280;45812;53.540;9.774;2022-10-16T07:50:51;101227.44;;;14.16;100.00
59951;BME280;45812;53.540;9.774;2022-10-16T07:53:16;101228.75;;;14.12;100.00
59951;BME280;45812;53.540;9.774;2022-10-16T07:55:42;101238.38;;;13.99;100.00
59951;BME280;45812;53.540;9.774;2022-10-16T07:58:07;101230.25;;;13.84;100.00
59951;BME280;45812;53.540;9.774;2022-10-16T08:00:33;101243.31;;;13.79;100.00
59951;BME280;45812;53.540;9.774;2022-10-16T08:02:58;101248.84;;;13.77;100.00
59951;BME280;45812;53.540;9.774;2022-10-16T08:05:26;101240.16;;;13.67;100.00
59951;BME280;45812;53.540;9.774;2022-10-16T08:07:52;101248.41;;;13.57;100.00
59951;BME280;45812;53.540;9.774;2022-10-16T08:10:19;101256.25;;;13.51;100.00
59951;BME280;45812;53.540;9.774;2022-10-16T08:12:44;101250.56;;;13.62;100.00
59951;BME280;45812;53.540;9.774;2022-10-16T08:15:10;101263.75;;;13.63;100.00
59951;BME280;45812;53.540;9.774;2022-10-16T08:17:36;101253.97;;;13.87;100.00
59951;BME280;45812;53.540;9.774;2022-10-16T08:20:02;101258.91;;;14.14;100.00
59951;BME280;45812;53.540;9.774;2022-10-16T08:22:27;101253.88;;;14.50;100.00
59951;BME280;45812;53.540;9.774;2022-10-16T08:24:53;101251.00;;;14.75;100.00
59951;BME280;45812;53.540;9.774;2022-10-16T08:27:18;101259.44;;;14.87;100.00
59951;BME280;45812;53.540;9.774;2022-10-16T08:29:43;101268.63;;;14.92;100.00
59951;BME280;45812;53.540;9.774;2022-10-16T08:32:08;101255.88;;;14.94;100.00
59951;BME280;45812;53.540;9.774;2022-10-16T08:34:34;101260.75;;;15.13;100.00
59951;BME280;45812;53.540;9.774;2022-10-16T08:36:59;101262.63;;;15.28;100.00
59951;BME280;45812;53.540;9.774;2022-10-16T08:39:24;101267.16;;;15.27;99.74
59951;BME280;45812;53.540;9.774;2022-10-16T08:45:08;101262.94;;;15.48;97.81
59951;BME280;45812;53.540;9.774;2022-10-16T08:47:48;101267.47;;;15.47;96.99
59951;BME280;45812;53.540;9.774;2022-10-16T08:50:22;101271.13;;;15.84;96.92
59951;BME280;45812;53.540;9.774;2022-10-16T08:52:49;101269.78;;;16.60;92.48
59951;BME280;45812;53.540;9.774;2022-10-16T08:57:56;101270.84;;;16.44;90.14
59951;BME280;45812;53.540;9.774;2022-10-16T09:00:21;101290.84;;;16.56;91.60
59951;BME280;45812;53.540;9.774;2022-10-16T09:05:22;101277.91;;;18.28;79.40
59951;BME280;45812;53.540;9.774;2022-10-16T09:08:19;101288.75;;;18.48;80.53
59951;BME280;45812;53.540;9.774;2022-10-16T09:11:12;101291.84;;;18.44;80.00
59951;BME280;45812;53.540;9.774;2022-10-16T09:13:57;101298.25;;;19.18;74.31
59951;BME280;45812;53.540;9.774;2022-10-16T09:16:36;101308.69;;;18.60;74.34
59951;BME280;45812;53.540;9.774;2022-10-16T09:21:40;101319.22;;;18.41;76.45
59951;BME280;45812;53.540;9.774;2022-10-16T09:24:14;101334.91;;;17.90;78.00
59951;BME280;45812;53.540;9.774;2022-10-16T09:26:41;101320.66;;;18.03;78.58
59951;BME280;45812;53.540;9.774;2022-10-16T09:29:06;101330.03;;;17.51;79.30
59951;BME280;45812;53.540;9.774;2022-10-16T09:31:31;101319.13;;;17.10;80.85
59951;BME280;45812;53.540;9.774;2022-10-16T09:34:02;101337.88;;;16.82;82.84
59951;BME280;45812;53.540;9.774;2022-10-16T09:36:42;101309.38;;;16.87;85.25
59951;BME280;45812;53.540;9.774;2022-10-16T09:39:10;101317.34;;;16.95;84.96
59951;BME280;45812;53.540;9.774;2022-10-16T09:41:39;101318.22;;;17.03;81.97
59951;BME280;45812;53.540;9.774;2022-10-16T09:44:17;101313.63;;;17.18;82.37
59951;BME280;45812;53.540;9.774;2022-10-16T09:46:44;101310.72;;;17.47;82.24
59951;BME280;45812;53.540;9.774;2022-10-16T09:49:23;101319.88;;;17.74;80.09
59951;BME280;45812;53.540;9.774;2022-10-16T09:51:50;101328.25;;;17.65;80.53
59951;BME280;45812;53.540;9.774;2022-10-16T09:54:18;101320.50;;;17.76;78.75
59951;BME280;45812;53.540;9.774;2022-10-16T09:56:44;101335.09;;;17.89;77.66
59951;BME280;45812;53.540;9.774;2022-10-16T09:59:15;101333.88;;;18.26;76.38
59951;BME280;45812;53.540;9.774;2022-10-16T10:01:43;101340.81;;;18.55;73.93
59951;BME280;45812;53.540;9.774;2022-10-16T10:04:10;101342.16;;;18.72;72.88
59951;BME280;45812;53.540;9.774;2022-10-16T10:06:41;101350.75;;;19.09;70.98
59951;BME280;45812;53.540;9.774;2022-10-16T10:09:37;101349.34;;;19.52;69.48
59951;BME280;45812;53.540;9.774;2022-10-16T10:12:05;101344.13;;;19.90;68.93
59951;BME280;45812;53.540;9.774;2022-10-16T10:14:38;101358.97;;;20.33;65.99
59951;BME280;45812;53.540;9.774;2022-10-16T10:19:47;101360.81;;;20.52;61.64
59951;BME280;45812;53.540;9.774;2022-10-16T10:22:25;101356.88;;;20.35;65.48
59951;BME280;45812;53.540;9.774;2022-10-16T10:30:41;101345.38;;;20.97;61.53
59951;BME280;45812;53.540;9.774;2022-10-16T10:35:59;101374.50;;;20.57;59.16
59951;BME280;45812;53.540;9.774;2022-10-16T10:38:34;101364.59;;;21.77;55.58
59951;BME280;45812;53.540;9.774;2022-10-16T10:46:42;101366.22;;;23.18;48.65
59951;BME280;45812;53.540;9.774;2022-10-16T10:52:31;101370.22;;;21.94;52.03
59951;BME280;45812;53.540;9.774;2022-10-16T10:55:10;101359.97;;;23.71;48.03
59951;BME280;45812;53.540;9.774;2022-10-16T10:58:18;101371.69;;;24.58;44.13
59951;BME280;45812;53.540;9.774;2022-10-16T11:01:04;101351.09;;;25.70;42.50
59951;BME280;45812;53.540;9.774;2022-10-16T11:03:51;101365.69;;;26.19;41.65
59951;BME280;45812;53.540;9.774;2022-10-16T11:06:28;101358.13;;;27.51;38.32
59951;BME280;45812;53.540;9.774;2022-10-16T11:09:08;101360.38;;;27.22;38.38
59951;BME280;45812;53.540;9.774;2022-10-16T11:11:43;101387.44;;;27.55;37.75
59951;BME280;45812;53.540;9.774;2022-10-16T11:16:48;101374.13;;;26.78;37.61
59951;BME280;45812;53.540;9.774;2022-10-16T11:22:03;101404.75;;;23.92;42.52
59951;BME280;45812;53.540;9.774;2022-10-16T11:25:02;101397.88;;;24.48;42.40
59951;BME280;45812;53.540;9.774;2022-10-16T11:27:39;101400.13;;;22.30;46.84
59951;BME280;45812;53.540;9.774;2022-10-16T11:30:14;101407.84;;;22.52;46.60
59951;BME280;45812;53.540;9.774;2022-10-16T11:33:04;101412.19;;;22.89;45.98
59951;BME280;45812;53.540;9.774;2022-10-16T11:35:43;101412.47;;;21.27;49.86
59951;BME280;45812;53.540;9.774;2022-10-16T11:38:24;101418.22;;;22.36;45.94
59951;BME280;45812;53.540;9.774;2022-10-16T11:40:53;101420.81;;;23.70;44.10
59951;BME280;45812;53.540;9.774;2022-10-16T11:43:35;101416.44;;;24.51;42.92
59951;BME280;45812;53.540;9.774;2022-10-16T11:46:10;101429.53;;;23.18;45.12
59951;BME280;45812;53.540;9.774;2022-10-16T11:48:55;101419.50;;;22.16;46.90
59951;BME280;45812;53.540;9.774;2022-10-16T11:51:39;101419.94;;;22.86;45.21
59951;BME280;45812;53.540;9.774;2022-10-16T11:54:17;101428.75;;;22.81;45.88
59951;BME280;45812;53.540;9.774;2022-10-16T11:56:48;101432.53;;;23.29;45.00
59951;BME280;45812;53.540;9.774;2022-10-16T11:59:20;101439.16;;;23.63;43.53
59951;BME280;45812;53.540;9.774;2022-10-16T12:02:07;101434.50;;;26.21;38.36
59951;BME280;45812;53.540;9.774;2022-10-16T12:04:50;101434.19;;;27.86;35.55
59951;BME280;45812;53.540;9.774;2022-10-16T12:07:22;101452.53;;;27.53;35.25
59951;BME280;45812;53.540;9.774;2022-10-16T12:09:50;101449.94;;;25.77;37.92
59951;BME280;45812;53.540;9.774;2022-10-16T12:12:25;101460.28;;;23.61;41.69
59951;BME280;45812;53.540;9.774;2022-10-16T12:15:03;101453.03;;;22.58;44.58
59951;BME280;45812;53.540;9.774;2022-10-16T12:17:37;101462.88;;;23.25;44.41
59951;BME280;45812;53.540;9.774;2022-10-16T12:22:41;101463.78;;;24.61;39.70
59951;BME280;45812;53.540;9.774;2022-10-16T12:25:31;101458.59;;;25.28;38.63
59951;BME280;45812;53.540;9.774;2022-10-16T12:28:04;101490.25;;;24.77;39.12
59951;BME280;45812;53.540;9.774;2022-10-16T12:30:34;101480.31;;;22.45;43.45
59951;BME280;45812;53.540;9.774;2022-10-16T12:33:21;101466.16;;;24.46;39.88
59951;BME280;45812;53.540;9.774;2022-10-16T12:35:47;101477.38;;;24.50;39.92
59951;BME280;45812;53.540;9.774;2022-10-16T12:38:18;101466.41;;;23.26;42.70
59951;BME280;45812;53.540;9.774;2022-10-16T12:40:56;101478.28;;;23.43;43.27
59951;BME280;45812;53.540;9.774;2022-10-16T12:48:35;101497.94;;;24.10;39.42
59951;BME280;45812;53.540;9.774;2022-10-16T12:54:18;101491.00;;;23.31;41.08
59951;BME280;45812;53.540;9.774;2022-10-16T13:02:58;101504.75;;;21.63;46.71
59951;BME280;45812;53.540;9.774;2022-10-16T13:09:06;101521.41;;;20.24;49.47
59951;BME280;45812;53.540;9.774;2022-10-16T13:17:53;101516.41;;;19.82;52.68
59951;BME280;45812;53.540;9.774;2022-10-16T13:20:33;101522.22;;;21.67;48.04
59951;BME280;45812;53.540;9.774;2022-10-16T13:26:04;101523.78;;;22.38;46.39
59951;BME280;45812;53.540;9.774;2022-10-16T13:28:35;101538.81;;;24.57;40.60
59951;BME280;45812;53.540;9.774;2022-10-16T13:31:03;101534.09;;;23.27;41.68
59951;BME280;45812;53.540;9.774;2022-10-16T13:33:42;101542.47;;;21.65;44.61
59951;BME280;45812;53.540;9.774;2022-10-16T13:36:29;101547.97;;;20.94;45.38
59951;BME280;45812;53.540;9.774;2022-10-16T13:39:12;101551.66;;;21.12;45.51
59951;BME280;45812;53.540;9.774;2022-10-16T13:41:37;101558.88;;;20.47;46.65
59951;BME280;45812;53.540;9.774;2022-10-16T13:44:03;101554.38;;;21.95;43.38
59951;BME280;45812;53.540;9.774;2022-10-16T13:46:29;101558.34;;;21.03;45.41
59951;BME280;45812;53.540;9.774;2022-10-16T13:49:01;101548.03;;;19.94;48.76
59951;BME280;45812;53.540;9.774;2022-10-16T13:51:28;101561.06;;;19.64;49.89
59951;BME280;45812;53.540;9.774;2022-10-16T13:53:55;101558.03;;;19.40;51.74
59951;BME280;45812;53.540;9.774;2022-10-16T13:56:24;101564.97;;;21.14;48.88
59951;BME280;45812;53.540;9.774;2022-10-16T13:59:00;101564.19;;;22.46;45.22
59951;BME280;45812;53.540;9.774;2022-10-16T14:01:41;101560.75;;;23.67;42.58
59951;BME280;45812;53.540;9.774;2022-10-16T14:04:11;101572.88;;;26.04;37.74
59951;BME280;45812;53.540;9.774;2022-10-16T14:06:46;101567.41;;;27.80;33.39
59951;BME280;45812;53.540;9.774;2022-10-16T14:09:22;101579.28;;;28.55;31.33
59951;BME280;45812;53.540;9.774;2022-10-16T14:11:51;101589.69;;;28.58;31.46
59951;BME280;45812;53.540;9.774;2022-10-16T14:14:21;101588.59;;;27.19;32.72